Hills, Texas
Current Conditions -  °F | °C
As of 4:35 PM on Friday 19 Dec 2014 (Local Time) from KGYB Reporting Station
Overcast Overcast  
Wind Chill: 53°   Ceiling: 1000
Heat Index: 53°   Visibility: 7mi
Dew Point: 49°   Wind: 10mph
Humidity: 86%   Direction: 350°N
Pressure: 30.13"   Gusts: NA
Location:  30.1897°N, 97.1182°W
Report Text: KGYB 192235Z AUTO 35009KT 7SM OVC010 12/09 A3013 RMK AO2 T01170094
Loading
Personal Weather Stations






























Interactive Weather Map New forecast layout! Learn more

10-Day Weather Forecast

Advertisements
Track Severe Weather on mobile